Track Тучин Александр

Time Latitude Longitude Accuracy (66% radius in meters) Altitude (meters) Speed (km/hour) Bearing (degrees) Battery (%) GPS flag
08:34:17 60.371046 29.556382 6 70 0 318.9931640625 89 1 delete
08:34:04 60.371046 29.556382 6 70 0 318.9931640625 89 1 delete
08:33:52 60.371046 29.556382 4 70 0 318.9931640625 89 1 delete
08:33:51 60.371046 29.556382 4 70 0 318.9931640625 89 1 delete
08:33:40 60.371005 29.556317 8 69 0 318.9931640625 89 1 delete
08:33:25 60.371005 29.556317 6 69 0 318.9931640625 89 1 delete
08:33:13 60.371005 29.556317 4 69 0 318.9931640625 89 1 delete
08:33:01 60.371063 29.556374 6 77 0 318.9931640625 89 1 delete
08:32:54 60.371006 29.556329 12 81 0 318.9931640625 89 1 delete
08:32:42 60.371006 29.556329 8 81 0 318.9931640625 89 1 delete
08:32:29 60.370983 29.556367 6 78 0 305.06741333008 89 1 delete
08:32:19 60.370983 29.556367 6 78 0 305.06741333008 89 1 delete
08:32:15 60.370983 29.556367 4 78 0 305.06741333008 89 1 delete
08:32:07 60.370948 29.556418 8 78 0 305.06741333008 89 1 delete
08:31:56 60.370945 29.556496 8 77 0 305.06741333008 89 1 delete
08:31:44 60.370945 29.556496 6 77 0 305.06741333008 89 1 delete
08:31:32 60.370945 29.556496 4 77 1.5030664205551 305.06741333008 89 1 delete
08:31:29 60.370915 29.556592 6 77 2.1960916519165 308.51318359375 89 1 delete
08:31:27 60.370881 29.556671 6 74 2.7661271095276 331.68161010742 89 1 delete
08:31:25 60.370826 29.556708 4 73 2.26003074646 348.06973266602 89 1 delete
08:31:23 60.370773 29.556723 4 74 0 313.35247802734 89 1 delete
08:31:20 60.370735 29.556746 6 75 0 313.35247802734 89 1 delete
08:31:05 60.370735 29.556746 4 75 0 313.35247802734 89 1 delete
08:30:54 60.370718 29.556789 4 75 3.7842605113983 311.30627441406 89 1 delete
08:30:53 60.370684 29.556870 4 75 5.7842059135437 309.49328613281 89 1 delete
08:30:52 60.370648 29.556965 4 78 5.5662536621094 307.58282470703 89 1 delete
08:30:51 60.370624 29.557057 6 78 5.4897522926331 305.876953125 89 1 delete
08:30:50 60.370612 29.557154 6 81 5.2089705467224 290.15902709961 89 1 delete
08:30:49 60.370610 29.557248 6 80 5.4812350273132 255.52577209473 89 1 delete
08:30:48 60.370629 29.557332 6 81 5.6987819671631 222.42065429688 89 1 delete
08:30:47 60.370667 29.557387 4 79 6.2843451499939 202.83757019043 89 1 delete
08:30:46 60.370720 29.557419 4 78 6.3679285049438 175.05905151367 89 1 delete
08:30:45 60.370782 29.557398 4 78 6.741726398468 153.74252319336 89 1 delete
08:30:44 60.370845 29.557329 6 79 6.8588533401489 140.50065612793 89 1 delete
08:30:43 60.370901 29.557235 6 81 7.1154799461365 140.94769287109 89 1 delete
08:30:42 60.370956 29.557147 6 82 6.7744417190552 142.66592407227 89 1 delete
08:30:41 60.371014 29.557073 6 83 6.7163119316101 143.11790466309 89 1 delete
08:30:40 60.371067 29.557018 6 84 5.8091444969177 175.75614929199 89 1 delete
08:30:39 60.371130 29.557016 6 85 4.8662056922913 179.8765411377 89 1 delete
08:30:38 60.371185 29.557030 6 86 3.910218000412 205.69306945801 89 1 delete
08:30:36 60.371219 29.557131 4 83 5.0879778862 287.53866577148 89 1 delete
08:30:35 60.371198 29.557252 6 84 5.9165186882019 302.50747680664 89 1 delete
08:30:34 60.371170 29.557362 6 83 5.9226746559143 303.92050170898 89 1 delete
08:30:33 60.371142 29.557461 6 83 5.9751238822937 305.9104309082 89 1 delete
08:30:32 60.371112 29.557559 6 84 5.8704314231873 308.03323364258 89 1 delete
08:30:31 60.371077 29.557664 6 82 6.16637134552 310.64764404297 89 1 delete
08:30:30 60.371037 29.557779 6 83 6.6081967353821 314.07971191406 89 1 delete
08:30:29 60.370993 29.557885 6 84 6.56476354599 316.68786621094 89 1 delete
08:30:28 60.370949 29.557980 6 87 6.5500435829163 318.22650146484 89 1 delete
08:30:26 60.370855 29.558159 6 88 6.9773082733154 322.5944519043 89 1 delete